Decoded Metar for LFLL (LYON ST. EXUPERY in FRANCE) (IATA:LYS) | Meteo·Mobile Aviation Weather
aviador You're here:

LFLL Decoded Metar

LYON ST. EXUPERY in FRANCE
Report Time2018-11-12 22:00:00
UTC Time2018-11-12 22:27:26
Flight Rules vfr VFR
Wind180° at 07 kt
W.Decomp.*RWY 18: 7.0 kt HW 0.1 kt LCW
W.Rank180° ranks 6
Current wind is below 180° avg. (10.3)
Visibility9999 m
Phenomena:N/A
Clouds:N/A
Expected CloudBase > 3,600 ft AGL from Temp-Dew spread
CeilingNone
Temp18°C (ISA +5)
Dew Point09°C (56% RH)
AAT15.3°C
QNH1022 hPa
Density Alt1,178 ft
Elevation787 ft
Report Wrong Elevation
Raw Report
METAR LFLL 122200Z 18007KT 150V210 CAVOK 18/09 Q1022 NOSIG=

Extra information for LFLL:More info

Metar Taf Metar & Taf Last 4 Metars F.Rules Stats Wind Profile Meteogram Temp Stats Airport Information Weather charts Add Link Nearby VenuesMetar ALERT Operation Metar Decoded Social comments